Terminal Aerodrome Forecast
Issued by NWS

Home | Current Version | Previous Version | Graphics & Text | Print | Product List | Glossary On
Versions: 1 2 3 4 5 6 7 8 9 10 11 12 13 14 15
000
FTUS45 KGGW 250500
TAFSDY
TAF
KSDY 250523Z 2506/2606 30011G21KT 3SM BR SCT012 OVC020
      TEMPO 2506/2509 6SM BR BKN012
     FM251200 30014KT P6SM OVC025
     FM260000 VRB06KT P6SM SCT060
      AMD LTD TO CLD VIS AND WIND=

USA.gov is the U.S. government's official web portal to all federal, state and local government web resources and services.